Time;durP1;ratioP1;P1;durP2;ratioP2;P2;SDS_P1;SDS_P2;PMS_P1;PMS_P2;Temp;Humidity;BMP_temperature;BMP_pressure;BME280_temperature;BME280_humidity;BME280_pressure;Samples;Min_cycle;Max_cycle;Signal;HPM_P1;HPM_P2
2022/06/09 00:00:21;;;;;;;24.45;11.50;;;23.00;58.10;;;;;;4934171;29;20448;-71
2022/06/09 00:02:53;;;;;;;22.30;11.32;;;23.10;58.00;;;;;;4948431;29;20070;-72
2022/06/09 00:05:20;;;;;;;23.30;11.45;;;23.10;58.20;;;;;;4934017;29;20631;-72
2022/06/09 00:07:48;;;;;;;20.60;11.18;;;23.00;58.10;;;;;;4948339;29;20158;-71
2022/06/09 00:10:21;;;;;;;26.45;11.25;;;23.00;58.20;;;;;;4933396;29;20038;-72
2022/06/09 00:12:47;;;;;;;25.45;11.20;;;23.10;58.30;;;;;;4932687;29;20114;-72
2022/06/09 00:15:14;;;;;;;22.95;11.23;;;23.10;58.40;;;;;;4933860;29;20110;-71
2022/06/09 00:17:41;;;;;;;23.65;11.95;;;23.10;58.30;;;;;;4932681;29;20159;-72
2022/06/09 00:20:08;;;;;;;25.05;11.23;;;23.10;58.10;;;;;;4933767;29;20027;-72
2022/06/09 00:22:34;;;;;;;21.15;11.00;;;23.10;58.30;;;;;;4933495;29;20536;-72
2022/06/09 00:25:00;;;;;;;20.60;10.90;;;23.10;58.20;;;;;;4933468;29;20115;-71
2022/06/09 00:27:25;;;;;;;21.65;10.20;;;23.10;58.20;;;;;;4932829;29;20027;-72
2022/06/09 00:29:51;;;;;;;21.98;11.02;;;23.10;58.20;;;;;;4933284;29;20123;-71
2022/06/09 00:32:17;;;;;;;23.30;10.48;;;23.00;58.10;;;;;;4932998;29;20024;-72
2022/06/09 00:34:43;;;;;;;18.60;9.45;;;23.10;58.20;;;;;;4948423;28;20090;-72
2022/06/09 00:37:09;;;;;;;22.00;10.65;;;23.10;58.20;;;;;;4932845;29;20424;-71
2022/06/09 00:39:34;;;;;;;15.95;7.57;;;23.10;58.30;;;;;;4932778;29;20110;-71
2022/06/09 00:42:01;;;;;;;23.80;9.73;;;23.10;58.20;;;;;;4947616;28;20500;-72
2022/06/09 00:44:29;;;;;;;18.40;9.57;;;23.10;58.20;;;;;;4933232;29;20548;-72
2022/06/09 00:46:57;;;;;;;20.92;9.75;;;23.10;58.20;;;;;;4932356;29;20067;-72
2022/06/09 00:49:29;;;;;;;17.85;9.70;;;23.10;58.20;;;;;;4947378;28;20126;-72
2022/06/09 00:51:58;;;;;;;20.38;9.85;;;23.10;58.30;;;;;;4929999;29;20027;-72
2022/06/09 00:54:37;;;;;;;23.58;10.63;;;23.10;58.30;;;;;;4947557;29;20042;-72
2022/06/09 00:57:13;;;;;;;20.95;10.07;;;23.10;58.50;;;;;;4929121;29;20031;-71
2022/06/09 00:59:44;;;;;;;24.85;9.95;;;23.10;58.40;;;;;;4932745;29;20036;-71
2022/06/09 01:02:12;;;;;;;18.83;9.60;;;23.10;58.50;;;;;;4932669;29;20570;-71
2022/06/09 01:04:39;;;;;;;20.23;9.68;;;23.10;58.50;;;;;;4932680;29;20066;-71
2022/06/09 01:07:15;;;;;;;16.77;8.82;;;23.10;58.40;;;;;;4932860;29;20028;-71
2022/06/09 01:09:41;;;;;;;22.02;9.23;;;23.10;58.60;;;;;;4947417;29;20035;-71
2022/06/09 01:12:30;;;;;;;18.05;8.88;;;23.10;58.50;;;;;;4947448;29;20393;-71
2022/06/09 01:15:04;;;;;;;22.85;9.07;;;23.10;58.50;;;;;;4944188;29;20504;-71
2022/06/09 01:17:39;;;;;;;16.92;8.02;;;23.10;58.50;;;;;;4932187;29;20046;-71
2022/06/09 01:20:34;;;;;;;17.80;8.25;;;23.10;58.60;;;;;;4928902;29;20036;-71
2022/06/09 01:23:18;;;;;;;16.88;8.23;;;23.10;58.50;;;;;;4932618;29;20103;-71
2022/06/09 01:26:10;;;;;;;16.67;7.88;;;23.10;58.50;;;;;;4932596;29;20106;-71
2022/06/09 01:29:10;;;;;;;19.08;8.65;;;23.10;58.50;;;;;;4931782;29;20127;-72
2022/06/09 01:31:46;;;;;;;16.02;7.72;;;23.10;58.40;;;;;;4932115;29;20512;-71
2022/06/09 01:34:29;;;;;;;18.58;8.02;;;23.10;58.50;;;;;;4932691;29;20063;-71
2022/06/09 01:37:04;;;;;;;13.82;6.70;;;23.10;58.50;;;;;;4931594;29;20051;-71
2022/06/09 01:39:48;;;;;;;18.38;8.18;;;23.10;58.60;;;;;;4946378;29;20028;-71
2022/06/09 01:42:34;;;;;;;15.15;7.53;;;23.10;58.50;;;;;;4945946;29;20047;-71
2022/06/09 01:45:09;;;;;;;15.30;7.40;;;23.10;58.50;;;;;;4932251;29;20485;-71
2022/06/09 01:47:53;;;;;;;14.10;6.80;;;23.10;58.40;;;;;;4946218;29;20039;-71
2022/06/09 01:50:53;;;;;;;13.63;6.95;;;23.10;58.40;;;;;;4931475;29;20038;-71
2022/06/09 01:53:27;;;;;;;13.60;6.60;;;23.10;58.40;;;;;;4930900;29;20032;-71
2022/06/09 01:55:59;;;;;;;17.60;6.55;;;23.10;58.40;;;;;;4934602;28;20036;-72
2022/06/09 01:58:33;;;;;;;17.20;6.85;;;23.10;58.50;;;;;;4946320;29;20482;-72
2022/06/09 02:01:02;;;;;;;14.10;6.38;;;23.10;58.50;;;;;;4947096;29;20444;-71
2022/06/09 02:03:33;;;;;;;12.93;5.82;;;23.10;58.50;;;;;;4931820;29;20040;-71
2022/06/09 02:06:00;;;;;;;12.00;5.72;;;23.10;58.40;;;;;;4931880;29;20522;-72
2022/06/09 02:08:29;;;;;;;14.00;6.00;;;23.10;58.50;;;;;;4931204;29;20055;-71
2022/06/09 02:10:59;;;;;;;13.40;5.55;;;23.10;58.40;;;;;;4932192;29;20043;-71
2022/06/09 02:13:28;;;;;;;12.05;5.80;;;23.10;58.40;;;;;;4932005;29;20511;-71
2022/06/09 02:15:58;;;;;;;12.77;5.50;;;23.10;58.40;;;;;;4931580;29;20024;-71
2022/06/09 02:18:26;;;;;;;11.27;4.70;;;23.10;58.40;;;;;;4931454;29;20040;-71
2022/06/09 02:21:06;;;;;;;11.77;6.13;;;23.10;58.40;;;;;;4931925;29;20511;-71
2022/06/09 02:23:33;;;;;;;12.75;5.60;;;23.10;59.00;;;;;;4931630;29;20035;-72
2022/06/09 02:25:58;;;;;;;12.98;5.15;;;23.10;59.00;;;;;;4931854;29;20031;-71
2022/06/09 02:28:24;;;;;;;11.20;5.28;;;23.10;58.80;;;;;;4931143;29;20040;-72
2022/06/09 02:30:50;;;;;;;12.23;4.78;;;23.10;59.10;;;;;;4945229;29;20028;-72
2022/06/09 02:33:18;;;;;;;10.50;4.95;;;23.10;59.20;;;;;;4931223;29;20404;-72
2022/06/09 02:35:44;;;;;;;11.57;4.88;;;23.10;59.20;;;;;;4930443;29;20030;-72
2022/06/09 02:38:10;;;;;;;10.88;5.10;;;23.10;59.10;;;;;;4931155;29;20424;-71
2022/06/09 02:40:36;;;;;;;10.40;4.72;;;23.10;59.00;;;;;;4931411;29;20028;-72
2022/06/09 02:43:02;;;;;;;11.40;4.40;;;23.10;58.80;;;;;;4931741;29;20035;-72
2022/06/09 02:45:29;;;;;;;8.38;4.32;;;23.10;59.00;;;;;;4931553;29;20075;-72
2022/06/09 02:47:55;;;;;;;10.68;4.90;;;23.10;59.00;;;;;;4931308;29;20056;-71
2022/06/09 02:50:21;;;;;;;8.77;4.28;;;23.10;59.10;;;;;;4946272;29;20099;-71
2022/06/09 02:52:47;;;;;;;9.15;4.40;;;23.10;59.10;;;;;;4927317;29;20143;-72
2022/06/09 02:55:13;;;;;;;8.45;4.22;;;23.10;59.10;;;;;;4946579;29;20027;-71
2022/06/09 02:57:39;;;;;;;10.70;4.78;;;23.00;59.60;;;;;;4931074;29;20103;-71
2022/06/09 03:00:09;;;;;;;10.68;4.57;;;23.00;58.90;;;;;;4931599;29;20055;-72
2022/06/09 03:02:35;;;;;;;;;;;23.00;59.00;;;;;;4931953;29;20032;-72
2022/06/09 03:05:01;;;;;;;12.27;4.70;;;23.00;59.00;;;;;;4934309;29;19926;-71
2022/06/09 03:07:27;;;;;;;6.43;3.65;;;23.00;59.00;;;;;;4934504;29;20027;-72
2022/06/09 03:09:53;;;;;;;7.53;3.75;;;23.10;59.00;;;;;;4950179;29;20039;-72
2022/06/09 03:12:20;;;;;;;8.90;4.18;;;23.00;58.90;;;;;;4949364;29;20469;-72
2022/06/09 03:14:47;;;;;;;8.32;4.03;;;23.00;58.80;;;;;;4949459;29;20086;-71
2022/06/09 03:17:13;;;;;;;8.25;3.72;;;23.00;58.80;;;;;;4934546;29;20038;-71
2022/06/09 03:19:39;;;;;;;6.45;3.67;;;23.00;58.90;;;;;;4949720;29;20103;-71
2022/06/09 03:22:06;;;;;;;9.25;4.03;;;23.00;58.70;;;;;;4934223;29;20027;-72
2022/06/09 03:24:31;;;;;;;8.63;3.80;;;23.00;58.70;;;;;;4949599;29;20114;-71
2022/06/09 03:26:57;;;;;;;8.18;3.70;;;23.10;58.70;;;;;;4934578;29;20512;-71
2022/06/09 03:29:24;;;;;;;8.55;3.45;;;23.00;58.60;;;;;;4949120;28;20031;-71
2022/06/09 03:31:50;;;;;;;8.77;4.07;;;23.00;58.60;;;;;;4933140;29;20032;-71
2022/06/09 03:34:16;;;;;;;7.10;3.30;;;23.10;58.60;;;;;;4934474;29;20031;-72
2022/06/09 03:36:45;;;;;;;9.05;3.60;;;23.10;58.70;;;;;;4933229;29;20147;-71
2022/06/09 03:39:13;;;;;;;8.38;3.20;;;23.10;58.50;;;;;;4934112;29;20023;-71
2022/06/09 03:41:38;;;;;;;7.88;3.10;;;23.10;58.60;;;;;;4948918;29;20423;-71
2022/06/09 03:44:05;;;;;;;7.68;3.25;;;23.00;58.60;;;;;;4934384;29;20098;-72
2022/06/09 03:46:31;;;;;;;8.77;3.75;;;23.10;58.60;;;;;;4934344;29;20220;-72
2022/06/09 03:48:57;;;;;;;8.70;2.97;;;23.10;58.70;;;;;;4933988;29;20658;-72
2022/06/09 03:51:22;;;;;;;9.48;3.40;;;23.00;58.60;;;;;;4934527;29;20564;-72
2022/06/09 03:53:48;;;;;;;10.43;3.15;;;23.00;58.60;;;;;;4933997;29;20028;-72
2022/06/09 03:56:18;;;;;;;8.30;2.92;;;23.00;58.60;;;;;;4934322;29;20481;-71
2022/06/09 03:58:44;;;;;;;7.82;3.08;;;23.00;58.60;;;;;;4933897;29;20028;-72
2022/06/09 04:01:17;;;;;;;8.80;2.88;;;23.00;58.50;;;;;;4947961;28;20043;-72
2022/06/09 04:03:47;;;;;;;8.95;3.05;;;23.00;58.40;;;;;;4937530;29;20019;-71
2022/06/09 04:06:20;;;;;;;7.07;3.03;;;23.00;58.60;;;;;;4933986;29;20032;-72
2022/06/09 04:08:48;;;;;;;7.10;3.38;;;23.00;58.60;;;;;;4947968;28;20114;-71
2022/06/09 04:11:15;;;;;;;6.18;2.80;;;23.00;58.50;;;;;;4933773;29;20032;-72
2022/06/09 04:13:42;;;;;;;9.63;3.30;;;23.00;58.50;;;;;;4932694;29;20046;-72
2022/06/09 04:16:27;;;;;;;7.05;3.08;;;23.00;58.60;;;;;;4947426;28;20036;-72
2022/06/09 04:18:55;;;;;;;6.43;2.63;;;23.00;58.50;;;;;;4933468;29;20027;-72
2022/06/09 04:21:21;;;;;;;6.55;2.95;;;23.00;58.50;;;;;;4932084;29;20028;-72
2022/06/09 04:23:47;;;;;;;6.80;2.88;;;23.00;58.50;;;;;;4933501;29;20498;-72
2022/06/09 04:26:16;;;;;;;6.07;2.80;;;23.00;58.40;;;;;;4933558;29;20108;-72
2022/06/09 04:28:44;;;;;;;6.20;2.43;;;23.00;58.50;;;;;;4933139;29;20034;-72
2022/06/09 04:31:10;;;;;;;6.85;2.80;;;23.00;58.50;;;;;;4933321;29;20043;-72
2022/06/09 04:33:36;;;;;;;10.63;2.95;;;23.00;58.40;;;;;;4929618;29;20098;-72
2022/06/09 04:36:03;;;;;;;6.63;2.50;;;23.00;58.60;;;;;;4932723;29;20504;-72
2022/06/09 04:38:29;;;;;;;4.50;2.70;;;23.00;58.50;;;;;;4933107;29;20027;-72
2022/06/09 04:40:55;;;;;;;5.90;2.60;;;23.00;58.40;;;;;;4933475;29;20024;-72
2022/06/09 04:43:21;;;;;;;6.45;2.30;;;23.00;58.50;;;;;;4947575;29;20027;-72
2022/06/09 04:45:47;;;;;;;4.93;2.45;;;23.10;58.60;;;;;;4932856;29;20505;-72
2022/06/09 04:48:13;;;;;;;7.38;2.78;;;23.00;58.50;;;;;;4947470;29;20050;-72
2022/06/09 04:50:40;;;;;;;5.65;2.50;;;23.00;58.40;;;;;;4947765;29;20122;-72
2022/06/09 04:53:08;;;;;;;7.30;2.53;;;23.00;58.40;;;;;;4947119;29;20043;-72
2022/06/09 04:55:35;;;;;;;6.32;2.70;;;23.00;58.40;;;;;;4933088;29;20048;-72
2022/06/09 04:58:01;;;;;;;6.13;2.38;;;23.00;58.40;;;;;;4932490;29;20028;-72
2022/06/09 05:00:27;;;;;;;8.43;2.70;;;23.00;58.60;;;;;;4933307;29;20024;-72
2022/06/09 05:02:54;;;;;;;7.80;2.50;;;23.00;58.50;;;;;;4932334;29;20110;-72
2022/06/09 05:05:32;;;;;;;6.97;2.72;;;23.00;58.40;;;;;;4932431;29;20031;-72
2022/06/09 05:07:58;;;;;;;6.15;2.50;;;23.00;58.50;;;;;;4947083;29;20035;-72
2022/06/09 05:10:27;;;;;;;4.35;2.40;;;23.00;58.40;;;;;;4932693;29;20107;-72
2022/06/09 05:12:54;;;;;;;6.25;2.40;;;23.00;58.50;;;;;;4947426;29;20549;-71
2022/06/09 05:15:21;;;;;;;6.90;2.33;;;23.00;58.60;;;;;;4947617;28;20449;-72
2022/06/09 05:17:51;;;;;;;4.88;2.22;;;23.00;58.50;;;;;;4932017;29;20028;-71
2022/06/09 05:20:19;;;;;;;5.82;2.42;;;23.00;58.50;;;;;;4927612;29;20523;-71
2022/06/09 05:22:45;;;;;;;8.18;2.50;;;23.00;58.50;;;;;;4932503;29;20046;-71
2022/06/09 05:25:12;;;;;;;7.68;2.47;;;23.00;58.40;;;;;;4932791;29;20028;-71
2022/06/09 05:27:38;;;;;;;5.88;2.20;;;23.00;58.40;;;;;;4928692;29;20110;-72
2022/06/09 05:30:07;;;;;;;4.70;2.08;;;23.00;58.60;;;;;;4932114;29;20083;-72
2022/06/09 05:32:33;;;;;;;10.75;2.72;;;23.00;58.40;;;;;;4932551;29;20071;-71
2022/06/09 05:34:59;;;;;;;4.65;2.20;;;23.00;58.50;;;;;;4946716;29;20047;-72
2022/06/09 05:37:25;;;;;;;5.60;2.10;;;23.00;58.40;;;;;;4931742;29;20067;-72
2022/06/09 05:45:20;;;;;;;5.93;2.53;;;23.00;58.40;;;;;;4946893;29;20484;-71
2022/06/09 05:47:46;;;;;;;6.38;2.28;;;23.00;58.40;;;;;;4931753;29;20035;-72
2022/06/09 05:50:11;;;;;;;4.25;2.20;;;23.00;58.40;;;;;;4931901;29;20459;-71
2022/06/09 05:52:37;;;;;;;6.07;2.40;;;23.00;58.30;;;;;;4931820;29;20099;-72
2022/06/09 05:55:05;;;;;;;6.18;2.10;;;23.00;58.50;;;;;;4932280;29;20060;-72
2022/06/09 05:57:31;;;;;;;7.03;2.05;;;22.90;58.40;;;;;;4931419;29;20094;-72
2022/06/09 05:59:57;;;;;;;6.20;2.45;;;22.90;58.40;;;;;;4931772;29;20036;-72
2022/06/09 06:02:25;;;;;;;7.10;2.20;;;22.90;58.50;;;;;;4931919;29;20095;-72
2022/06/09 06:04:52;;;;;;;4.82;2.08;;;22.90;58.50;;;;;;4931225;29;20496;-71
2022/06/09 06:07:18;;;;;;;7.68;2.33;;;22.90;58.50;;;;;;4931755;29;20099;-72
2022/06/09 06:09:44;;;;;;;6.40;2.00;;;22.90;58.60;;;;;;4931617;29;20039;-72
2022/06/09 06:12:10;;;;;;;6.22;2.15;;;23.00;58.60;;;;;;4931987;29;20512;-72
2022/06/09 06:14:36;;;;;;;7.53;2.22;;;23.00;58.50;;;;;;4946823;29;20039;-72
2022/06/09 06:17:02;;;;;;;5.90;1.90;;;22.90;58.40;;;;;;4931901;29;20036;-72
2022/06/09 06:19:28;;;;;;;7.50;2.13;;;22.90;58.40;;;;;;4931401;29;20068;-72
2022/06/09 06:21:54;;;;;;;3.45;1.80;;;22.90;58.50;;;;;;4932168;29;20059;-72
2022/06/09 06:24:23;;;;;;;3.80;2.00;;;23.00;58.50;;;;;;4931802;29;20448;-72
2022/06/09 06:26:50;;;;;;;7.10;2.13;;;23.00;58.60;;;;;;4932106;29;20440;-71
2022/06/09 06:29:22;;;;;;;5.88;2.03;;;23.00;58.50;;;;;;4915050;29;20540;-72
2022/06/09 06:31:49;;;;;;;5.10;1.98;;;22.90;58.50;;;;;;4928917;29;20448;-72
2022/06/09 06:34:16;;;;;;;6.00;2.00;;;23.00;58.40;;;;;;4931641;29;20034;-72
2022/06/09 06:36:42;;;;;;;5.75;1.98;;;22.90;58.40;;;;;;4946391;28;20031;-71
2022/06/09 06:39:08;;;;;;;4.80;2.05;;;23.00;58.40;;;;;;4932456;29;20108;-72
2022/06/09 06:41:34;;;;;;;7.63;1.85;;;23.00;58.50;;;;;;4935792;29;20031;-71
2022/06/09 06:44:04;;;;;;;6.63;1.90;;;23.00;58.60;;;;;;4919512;29;20039;-71
2022/06/09 06:46:29;;;;;;;4.78;1.40;;;23.00;58.40;;;;;;4935658;29;20114;-71
2022/06/09 06:48:55;;;;;;;3.78;1.92;;;23.00;58.50;;;;;;4934317;29;20042;-71
2022/06/09 06:51:22;;;;;;;3.75;1.55;;;23.00;58.40;;;;;;4935231;29;20493;-71
2022/06/09 06:53:48;;;;;;;4.10;1.90;;;23.00;58.50;;;;;;4950206;28;20043;-71
2022/06/09 06:56:14;;;;;;;5.80;2.20;;;23.00;58.50;;;;;;4934742;29;20552;-72
2022/06/09 06:58:40;;;;;;;3.88;1.65;;;23.00;58.50;;;;;;4949003;29;20032;-71
2022/06/09 07:01:06;;;;;;;6.50;2.10;;;23.00;58.60;;;;;;4950138;28;20031;-72
2022/06/09 07:03:32;;;;;;;6.45;1.65;;;23.00;58.50;;;;;;4935063;29;20083;-71
2022/06/09 07:05:58;;;;;;;7.38;1.73;;;23.00;58.60;;;;;;4934578;29;20111;-71
2022/06/09 07:08:24;;;;;;;6.53;1.80;;;22.90;58.60;;;;;;4949148;29;20469;-72
2022/06/09 07:10:52;;;;;;;6.40;1.73;;;23.00;58.70;;;;;;4934774;29;20028;-71
2022/06/09 07:13:18;;;;;;;3.58;1.45;;;22.90;58.60;;;;;;4934241;29;20042;-71
2022/06/09 07:15:44;;;;;;;6.38;1.83;;;23.00;58.60;;;;;;4949895;29;20401;-72
2022/06/09 07:18:10;;;;;;;6.97;1.73;;;23.00;58.70;;;;;;4934314;29;20057;-72
2022/06/09 07:20:38;;;;;;;9.45;2.00;;;22.90;58.60;;;;;;4949220;29;20098;-72
2022/06/09 07:23:03;;;;;;;5.68;2.03;;;22.90;58.60;;;;;;4934770;29;20126;-71
2022/06/09 07:25:29;;;;;;;3.30;1.63;;;22.90;58.70;;;;;;4935216;29;20543;-71
2022/06/09 07:27:55;;;;;;;3.75;1.90;;;23.00;58.90;;;;;;4918072;29;20044;-72
2022/06/09 07:30:23;;;;;;;5.40;1.67;;;23.00;58.90;;;;;;4934208;29;20460;-72
2022/06/09 07:32:49;;;;;;;7.68;2.30;;;22.90;58.60;;;;;;4934401;29;20110;-72
2022/06/09 07:35:20;;;;;;;5.20;2.20;;;22.90;59.00;;;;;;4934430;29;20039;-72
2022/06/09 07:37:46;;;;;;;5.45;1.95;;;23.00;59.10;;;;;;4917976;29;20031;-71
2022/06/09 07:40:13;;;;;;;7.30;2.20;;;23.10;59.20;;;;;;4933790;29;20489;-72
2022/06/09 07:42:39;;;;;;;5.95;2.13;;;23.10;59.90;;;;;;4949139;29;20613;-71
2022/06/09 07:45:06;;;;;;;10.45;2.60;;;23.10;60.10;;;;;;4934610;29;20556;-72
2022/06/09 07:47:32;;;;;;;15.85;4.35;;;23.10;60.50;;;;;;4948507;29;20115;-72
2022/06/09 07:49:58;;;;;;;9.32;3.17;;;23.10;65.30;;;;;;4949025;28;20147;-72
2022/06/09 07:52:24;;;;;;;18.33;3.45;;;23.20;61.70;;;;;;4934339;29;20043;-72
2022/06/09 07:54:50;;;;;;;7.05;2.10;;;23.10;64.00;;;;;;4934178;29;20524;-72
2022/06/09 07:57:16;;;;;;;10.43;3.00;;;23.00;59.60;;;;;;4933857;29;20039;-72
2022/06/09 07:59:42;;;;;;;23.25;15.13;;;23.00;60.00;;;;;;4947968;29;20143;-73
2022/06/09 08:02:10;;;;;;;26.20;15.95;;;22.80;59.50;;;;;;4948179;29;20028;-73
2022/06/09 08:04:35;;;;;;;25.17;14.90;;;22.80;59.30;;;;;;4933834;29;20761;-73
2022/06/09 08:07:02;;;;;;;21.55;13.43;;;22.80;59.70;;;;;;4934054;29;20063;-73
2022/06/09 08:09:29;;;;;;;23.95;15.43;;;22.80;59.50;;;;;;4947942;28;20063;-73
2022/06/09 08:11:55;;;;;;;22.58;14.50;;;22.70;59.40;;;;;;4945119;29;20036;-73
2022/06/09 08:14:21;;;;;;;19.48;10.65;;;22.70;60.10;;;;;;4932162;29;20030;-73
2022/06/09 08:16:47;;;;;;;18.95;11.77;;;22.70;59.50;;;;;;4947285;29;20028;-73
2022/06/09 08:19:13;;;;;;;11.23;5.53;;;22.70;59.50;;;;;;4931812;29;20110;-73
2022/06/09 08:21:39;;;;;;;11.43;5.18;;;22.70;59.30;;;;;;4936181;29;20032;-73
2022/06/09 08:24:06;;;;;;;8.32;4.95;;;22.70;60.10;;;;;;4933427;29;20032;-73
2022/06/09 08:26:32;;;;;;;7.10;3.63;;;22.70;59.60;;;;;;4932784;29;20047;-73
2022/06/09 08:28:58;;;;;;;7.55;3.80;;;22.60;60.00;;;;;;4947497;28;20043;-72
2022/06/09 08:31:24;;;;;;;8.13;3.40;;;22.60;60.00;;;;;;4933232;29;20023;-74
2022/06/09 08:33:50;;;;;;;37.53;32.88;;;22.70;61.10;;;;;;4933046;29;20119;-73
2022/06/09 08:36:16;;;;;;;33.15;23.67;;;22.70;61.10;;;;;;4947944;28;20118;-73
2022/06/09 08:38:42;;;;;;;26.00;19.40;;;22.70;60.20;;;;;;4917373;29;20511;-73
2022/06/09 08:41:27;;;;;;;34.42;23.38;;;22.70;59.90;;;;;;4933253;29;20027;-73
2022/06/09 08:43:59;;;;;;;27.05;16.75;;;22.70;60.10;;;;;;4916511;29;20035;-73
2022/06/09 08:46:50;;;;;;;18.23;11.43;;;22.70;59.90;;;;;;4931752;29;20063;-73
2022/06/09 08:49:31;;;;;;;14.98;8.95;;;22.70;59.90;;;;;;4947034;29;20382;-73
2022/06/09 08:52:06;;;;;;;17.60;10.15;;;22.70;60.00;;;;;;4932923;29;20047;-73
2022/06/09 08:54:37;;;;;;;14.23;7.30;;;22.70;60.10;;;;;;4947853;29;20115;-73
2022/06/09 08:57:15;;;;;;;19.05;7.10;;;22.70;60.00;;;;;;4947570;29;20137;-73
2022/06/09 08:59:44;;;;;;;8.85;4.03;;;22.70;60.70;;;;;;4929478;29;20031;-73
2022/06/09 09:02:31;;;;;;;10.60;3.60;;;22.70;60.80;;;;;;4932557;29;20062;-73
2022/06/09 09:05:13;;;;;;;7.68;3.38;;;22.70;63.70;;;;;;4932108;29;20107;-73
2022/06/09 09:07:44;;;;;;;12.38;3.42;;;22.70;62.80;;;;;;4930848;29;20445;-73
2022/06/09 09:10:20;;;;;;;7.00;2.10;;;22.70;62.70;;;;;;4932954;29;20027;-72
2022/06/09 09:13:23;;;;;;;8.23;2.28;;;22.70;63.50;;;;;;4932656;29;20110;-73
2022/06/09 09:15:52;;;;;;;7.13;2.17;;;22.70;63.30;;;;;;4947340;29;20385;-73
2022/06/09 09:18:40;;;;;;;8.93;2.47;;;22.70;65.30;;;;;;4946916;28;20046;-70
2022/06/09 09:21:31;;;;;;;9.93;2.20;;;22.70;62.40;;;;;;4932956;29;20378;-71
2022/06/09 09:24:09;;;;;;;10.60;1.90;;;22.70;61.30;;;;;;4931261;29;20023;-70
2022/06/09 09:26:54;;;;;;;4.15;2.10;;;22.70;61.80;;;;;;4932526;29;20645;-71
2022/06/09 09:29:29;;;;;;;5.53;2.00;;;22.70;61.70;;;;;;4932227;29;20035;-71
2022/06/09 09:31:59;;;;;;;8.07;2.08;;;22.70;61.20;;;;;;4932094;29;20485;-71
2022/06/09 09:34:32;;;;;;;5.38;2.20;;;22.70;61.60;;;;;;4931533;29;20043;-71
2022/06/09 09:37:23;;;;;;;7.90;2.00;;;22.70;61.30;;;;;;4947114;29;20067;-71
2022/06/09 09:39:53;;;;;;;4.07;1.67;;;22.70;61.30;;;;;;4932297;29;20027;-70
2022/06/09 09:42:24;;;;;;;3.60;1.90;;;22.70;60.90;;;;;;4947110;29;20431;-70
2022/06/09 09:44:57;;;;;;;6.88;2.03;;;22.70;61.20;;;;;;4932405;29;20036;-70
2022/06/09 09:47:25;;;;;;;5.30;1.80;;;22.70;63.40;;;;;;4931992;29;20193;-70
2022/06/09 09:49:56;;;;;;;5.90;2.00;;;22.70;61.00;;;;;;4931630;29;20027;-71
2022/06/09 09:52:38;;;;;;;4.68;2.03;;;22.70;61.40;;;;;;4947207;29;20039;-70
2022/06/09 09:55:29;;;;;;;9.98;1.90;;;22.70;60.90;;;;;;4932131;29;20041;-71
2022/06/09 09:58:28;;;;;;;2.78;1.63;;;22.70;60.90;;;;;;4946686;29;20036;-70
2022/06/09 10:01:14;;;;;;;4.93;1.73;;;22.70;60.60;;;;;;4932233;29;20485;-70
2022/06/09 10:09:47;;;;;;;12.48;2.63;;;22.60;62.50;;;;;;4946576;29;20035;-71
2022/06/09 10:12:31;;;;;;;16.95;2.80;;;22.70;61.60;;;;;;4945860;28;20032;-72
2022/06/09 10:15:14;;;;;;;25.63;2.55;;;22.70;63.20;;;;;;4934839;29;20448;-71
2022/06/09 10:17:58;;;;;;;10.82;2.05;;;22.70;61.90;;;;;;4933702;29;20063;-72
2022/06/09 10:20:47;;;;;;;15.45;2.30;;;22.80;60.90;;;;;;4935887;29;20024;-71
2022/06/09 10:23:24;;;;;;;11.70;2.22;;;22.80;60.80;;;;;;4935560;29;20480;-71
2022/06/09 10:26:07;;;;;;;9.82;2.05;;;22.80;60.80;;;;;;4950336;29;20036;-71
2022/06/09 10:29:03;;;;;;;10.48;1.80;;;22.80;60.90;;;;;;4950133;29;20102;-72
2022/06/09 10:31:51;;;;;;;6.97;2.00;;;22.80;62.00;;;;;;4935456;29;20063;-72
2022/06/09 10:35:04;;;;;;;8.38;2.15;;;22.80;61.50;;;;;;4935474;29;20489;-72
2022/06/09 10:37:38;;;;;;;8.07;2.00;;;22.80;62.30;;;;;;4924587;29;20071;-72
2022/06/09 10:40:13;;;;;;;7.05;2.28;;;22.70;61.20;;;;;;4930899;29;20040;-72
2022/06/09 10:42:59;;;;;;;7.10;1.95;;;22.70;61.10;;;;;;4935294;29;20037;-72
2022/06/09 10:45:56;;;;;;;9.75;2.45;;;22.80;60.90;;;;;;4935356;29;20043;-72
2022/06/09 10:57:15;;;;;;;11.23;4.63;;;22.70;61.40;;;;;;4949376;28;20071;-72
2022/06/09 10:59:52;;;;;;;12.02;4.90;;;22.70;61.50;;;;;;4932714;29;20067;-72
2022/06/09 11:02:21;;;;;;;10.63;3.80;;;22.70;60.80;;;;;;4934862;29;20036;-72
2022/06/09 11:04:50;;;;;;;10.32;3.58;;;22.70;61.60;;;;;;4934803;29;20042;-72
2022/06/09 11:07:39;;;;;;;11.10;3.78;;;22.70;63.50;;;;;;4934582;29;21363;-72
2022/06/09 11:10:27;;;;;;;8.43;2.90;;;22.70;63.40;;;;;;4939729;29;20471;-73
2022/06/09 11:13:24;;;;;;;10.18;3.30;;;22.70;64.50;;;;;;4941096;29;20055;-73
2022/06/09 11:16:10;;;;;;;7.25;3.15;;;22.60;63.10;;;;;;4933354;29;20036;-73
2022/06/09 11:18:43;;;;;;;5.15;2.80;;;22.70;63.30;;;;;;4932360;29;20135;-72
2022/06/09 11:21:35;;;;;;;6.75;3.00;;;22.70;63.30;;;;;;4937285;29;20393;-72
2022/06/09 11:24:29;;;;;;;7.90;2.97;;;22.60;63.00;;;;;;4936850;28;20094;-72
2022/06/09 11:27:03;;;;;;;6.78;2.70;;;22.70;63.00;;;;;;4950155;28;20449;-72
2022/06/09 11:30:01;;;;;;;7.97;3.08;;;22.60;63.20;;;;;;4937314;29;20079;-72
2022/06/09 11:33:17;;;;;;;8.80;2.80;;;22.70;63.30;;;;;;4927502;29;20065;-72
2022/06/09 11:35:55;;;;;;;5.57;2.53;;;22.60;63.10;;;;;;4917742;29;20040;-73
2022/06/09 11:39:02;;;;;;;8.77;2.45;;;22.70;62.70;;;;;;4933572;29;20035;-72
2022/06/09 11:41:41;;;;;;;6.57;2.20;;;22.70;62.40;;;;;;4934707;29;20112;-72
2022/06/09 11:44:13;;;;;;;4.18;2.40;;;22.70;61.90;;;;;;4949111;28;20036;-72
2022/06/09 11:46:41;;;;;;;6.82;2.40;;;22.70;62.30;;;;;;4934115;29;20038;-72
2022/06/09 11:49:26;;;;;;;8.05;2.70;;;22.70;62.20;;;;;;4932131;29;20469;-73
2022/06/09 11:51:54;;;;;;;5.75;2.67;;;22.70;61.90;;;;;;4933901;29;20035;-71
2022/06/09 11:54:51;;;;;;;5.30;2.30;;;22.70;61.50;;;;;;4933848;29;20054;-73
2022/06/09 11:57:19;;;;;;;5.07;2.55;;;22.60;62.10;;;;;;4916656;29;20504;-73
2022/06/09 12:00:00;;;;;;;7.57;2.65;;;22.70;62.00;;;;;;4933926;29;20035;-73
2022/06/09 12:02:32;;;;;;;4.85;2.50;;;22.70;61.80;;;;;;4934255;29;20024;-72
2022/06/09 12:05:17;;;;;;;9.88;2.97;;;22.70;61.90;;;;;;4933049;29;20058;-73
2022/06/09 12:08:10;;;;;;;6.07;3.03;;;22.70;61.50;;;;;;4931102;29;20039;-70
2022/06/09 12:11:02;;;;;;;4.38;2.33;;;22.70;61.60;;;;;;4933498;29;20050;-70
2022/06/09 12:13:45;;;;;;;5.07;2.40;;;22.60;61.70;;;;;;4934157;29;20036;-71
2022/06/09 12:16:37;;;;;;;5.55;2.50;;;22.70;61.80;;;;;;4933562;29;20405;-71
2022/06/09 12:19:23;;;;;;;7.47;2.33;;;22.70;62.20;;;;;;4924993;29;20039;-72
2022/06/09 12:21:55;;;;;;;7.30;2.85;;;22.70;62.00;;;;;;4933465;29;20046;-72
2022/06/09 12:24:34;;;;;;;14.65;3.10;;;22.70;61.50;;;;;;4929689;29;20102;-72
2022/06/09 12:27:17;;;;;;;8.95;2.78;;;22.70;61.60;;;;;;4932802;29;20044;-72
2022/06/09 12:30:04;;;;;;;7.28;2.80;;;22.80;61.80;;;;;;4946276;29;20087;-67
2022/06/09 12:32:38;;;;;;;9.52;3.17;;;22.80;62.10;;;;;;4933608;29;20622;-67
2022/06/09 12:35:34;;;;;;;9.25;2.60;;;22.80;61.20;;;;;;4933138;29;20032;-67
2022/06/09 12:38:26;;;;;;;5.97;2.53;;;22.80;61.30;;;;;;4944985;29;20461;-67
2022/06/09 12:40:56;;;;;;;5.82;2.58;;;22.80;61.90;;;;;;4925516;29;20044;-68
2022/06/09 12:43:27;;;;;;;;;;;22.80;61.10;;;;;;4933310;29;20099;-67
2022/06/09 12:46:06;;;;;;;8.35;2.65;;;22.80;61.70;;;;;;4933131;29;19917;-67
2022/06/09 12:48:33;;;;;;;7.17;3.50;;;22.80;61.10;;;;;;4932960;29;20028;-66
2022/06/09 12:51:00;;;;;;;14.07;8.30;;;22.80;61.10;;;;;;4932928;29;20031;-67
2022/06/09 12:53:36;;;;;;;20.25;14.55;;;22.80;61.70;;;;;;4932540;29;20038;-67
2022/06/09 12:56:24;;;;;;;21.27;11.45;;;22.80;61.40;;;;;;4932770;29;20074;-67
2022/06/09 12:58:52;;;;;;;17.13;11.35;;;22.70;61.50;;;;;;4931837;29;20032;-67
2022/06/09 13:01:21;;;;;;;17.25;11.98;;;22.80;61.10;;;;;;4946903;29;20055;-67
2022/06/09 13:03:57;;;;;;;17.17;8.90;;;22.80;60.90;;;;;;4933062;29;20035;-67
2022/06/09 13:06:30;;;;;;;11.18;5.85;;;22.80;60.90;;;;;;4931708;29;20036;-67
2022/06/09 13:09:00;;;;;;;13.77;6.57;;;22.80;60.90;;;;;;4932557;29;20046;-67
2022/06/09 13:14:22;;;;;;;11.60;4.30;;;22.70;61.20;;;;;;4947035;29;20095;-67
2022/06/09 13:16:50;;;;;;;8.32;4.20;;;22.70;61.80;;;;;;4932553;29;20031;-67
2022/06/09 13:19:19;;;;;;;11.30;4.80;;;22.70;61.70;;;;;;4932375;29;20527;-66
2022/06/09 13:21:46;;;;;;;11.27;4.53;;;22.70;61.50;;;;;;4932162;29;20034;-68
2022/06/09 13:24:24;;;;;;;6.70;4.15;;;22.70;61.90;;;;;;4916397;29;20118;-67
2022/06/09 13:26:50;;;;;;;7.47;3.65;;;22.70;62.30;;;;;;4932652;29;20452;-68
2022/06/09 13:29:30;;;;;;;8.68;4.00;;;22.70;61.80;;;;;;4931551;29;20555;-68
2022/06/09 13:32:19;;;;;;;10.60;3.92;;;22.70;61.80;;;;;;4947621;28;20059;-67